Balsa 93 — 3FGU7 — position and weather

sailwx.info

Track history (hours):
 
Tides and Currents Weather Stations Pressure Air Temp Water Temp Dewpoint Dewpoint Depression Visibility Wind Speed Wind Dir Waves Ship Positions

Balsa 93

Last reported at 2017-Oct-01 12:07 UTC. Time now 2017-Oct-20 16:14 UTC.
Position N 25°36' W 079°30'.
Warning: this ship's position is 19 days out of date.

Length 106 m; draft 6.4 m.

Type: Ship. MMSI: 372682000.

Date/timePositionNaut miles runAvg speedWind from/ knotsBaromVisibWave heightAir tempDewpointWater temp
2017-Oct-01 12:07N 25°36' W 079°30'210.8
2017-Oct-01 11:59N 25°38' W 079°29'510.8
2017-Oct-01 11:30N 25°43' W 079°29'510.8
2017-Oct-01 11:00N 25°48' W 079°28'510.6
2017-Oct-01 10:29N 25°54' W 079°28'610.3
2017-Oct-01 09:56N 25°59' W 079°27'510.1
2017-Oct-01 09:28N 26°04' W 079°27'510.1
2017-Oct-01 09:00N 26°09' W 079°27'510.1
2017-Oct-01 08:30N 26°14' W 079°26'  
2017-Sep-28 09:07N 36°49' W 075°47'411.4
2017-Sep-28 08:48N 36°51' W 075°51'311.2
2017-Sep-28 08:30N 36°53' W 075°54'510.7
2017-Sep-28 08:00N 36°56' W 075°59'5 9.7
2017-Sep-28 07:30N 37°01' W 076°03'11 9.8
2017-Sep-28 06:24N 37°11' W 076°06'2 0.0
2017-Sep-26 05:03N 37°11' W 076°04'0 0.0
2017-Sep-26 04:57N 37°11' W 076°04'0 0.0
2017-Sep-26 04:21N 37°11' W 076°04'0 0.1
2017-Sep-26 04:00N 37°11' W 076°04'2 0.1
2017-Sep-25 00:17N 37°10' W 076°06'9 9.0
2017-Sep-24 23:18N 37°01' W 076°03'3 9.9
2017-Sep-24 23:00N 36°58' W 076°03'510.9
2017-Sep-24 22:30N 36°59' W 076°10'811.6
2017-Sep-24 21:48N 36°58' W 076°20'412.0
2017-Sep-24 21:29N 36°57' W 076°25'510.9
2017-Sep-24 21:00N 37°01' W 076°30'  
2017-Sep-22 00:28N 36°58' W 076°27'0 0.1
2017-Sep-21 23:58N 36°58' W 076°27'0 0.1
2017-Sep-21 23:28N 36°58' W 076°27'0 0.0
2017-Sep-21 22:58N 36°58' W 076°27'0 0.0
2017-Sep-21 22:28N 36°58' W 076°27'0 0.0
2017-Sep-21 21:58N 36°58' W 076°27'0 0.0
2017-Sep-21 21:25N 36°58' W 076°27'0 0.0
2017-Sep-21 20:49N 36°58' W 076°27'0 0.0
2017-Sep-21 20:28N 36°58' W 076°27'0 0.0
2017-Sep-21 19:58N 36°58' W 076°27'0 0.0
2017-Sep-21 19:25N 36°58' W 076°27'0 0.0
2017-Sep-21 18:58N 36°58' W 076°27'3 4.4
2017-Sep-21 18:23N 36°57' W 076°24'411.5
2017-Sep-21 18:00N 36°59' W 076°19'611.3
2017-Sep-21 17:29N 36°60' W 076°12'612.5
2017-Sep-21 17:01N 36°58' W 076°05'612.2
2017-Sep-21 16:30N 36°56' W 075°57'510.5
2017-Sep-21 16:01N 36°53' W 075°52'711.4
2017-Sep-21 15:25N 36°49' W 075°45'6 6.9
2017-Sep-21 14:36N 36°49' W 075°38'  
Track history (hours):
 
Tides and Currents Weather Stations Pressure Air Temp Water Temp Dewpoint Dewpoint Depression Visibility Wind Speed Wind Dir Waves Ship Positions

Balsa 93

Last reported at 2017-Oct-01 12:07 UTC. Time now 2017-Oct-20 16:14 UTC.
Position N 25°36' W 079°30'.
Warning: this ship's position is 19 days out of date.

Length 106 m; draft 6.4 m.

Type: Ship. MMSI: 372682000.

Date/timePositionNaut miles runAvg speedWind from/ knotsBaromVisibWave heightAir tempDewpointWater temp
2017-Oct-01 12:07N 25°36' W 079°30'210.8
2017-Oct-01 11:59N 25°38' W 079°29'510.8
2017-Oct-01 11:30N 25°43' W 079°29'510.8
2017-Oct-01 11:00N 25°48' W 079°28'510.6
2017-Oct-01 10:29N 25°54' W 079°28'610.3
2017-Oct-01 09:56N 25°59' W 079°27'510.1
2017-Oct-01 09:28N 26°04' W 079°27'510.1
2017-Oct-01 09:00N 26°09' W 079°27'510.1
2017-Oct-01 08:30N 26°14' W 079°26'  
2017-Sep-28 09:07N 36°49' W 075°47'411.4
2017-Sep-28 08:48N 36°51' W 075°51'311.2
2017-Sep-28 08:30N 36°53' W 075°54'510.7
2017-Sep-28 08:00N 36°56' W 075°59'5 9.7
2017-Sep-28 07:30N 37°01' W 076°03'11 9.8
2017-Sep-28 06:24N 37°11' W 076°06'2 0.0
2017-Sep-26 05:03N 37°11' W 076°04'0 0.0
2017-Sep-26 04:57N 37°11' W 076°04'0 0.0
2017-Sep-26 04:21N 37°11' W 076°04'0 0.1
2017-Sep-26 04:00N 37°11' W 076°04'2 0.1
2017-Sep-25 00:17N 37°10' W 076°06'9 9.0
2017-Sep-24 23:18N 37°01' W 076°03'3 9.9
2017-Sep-24 23:00N 36°58' W 076°03'510.9
2017-Sep-24 22:30N 36°59' W 076°10'811.6
2017-Sep-24 21:48N 36°58' W 076°20'412.0
2017-Sep-24 21:29N 36°57' W 076°25'510.9
2017-Sep-24 21:00N 37°01' W 076°30'  
2017-Sep-22 00:28N 36°58' W 076°27'0 0.1
2017-Sep-21 23:58N 36°58' W 076°27'0 0.1
2017-Sep-21 23:28N 36°58' W 076°27'0 0.0
2017-Sep-21 22:58N 36°58' W 076°27'0 0.0
2017-Sep-21 22:28N 36°58' W 076°27'0 0.0
2017-Sep-21 21:58N 36°58' W 076°27'0 0.0
2017-Sep-21 21:25N 36°58' W 076°27'0 0.0
2017-Sep-21 20:49N 36°58' W 076°27'0 0.0
2017-Sep-21 20:28N 36°58' W 076°27'0 0.0
2017-Sep-21 19:58N 36°58' W 076°27'0 0.0
2017-Sep-21 19:25N 36°58' W 076°27'0 0.0
2017-Sep-21 18:58N 36°58' W 076°27'3 4.4
2017-Sep-21 18:23N 36°57' W 076°24'411.5
2017-Sep-21 18:00N 36°59' W 076°19'611.3
2017-Sep-21 17:29N 36°60' W 076°12'612.5
2017-Sep-21 17:01N 36°58' W 076°05'612.2
2017-Sep-21 16:30N 36°56' W 075°57'510.5
2017-Sep-21 16:01N 36°53' W 075°52'711.4
2017-Sep-21 15:25N 36°49' W 075°45'6 6.9
2017-Sep-21 14:36N 36°49' W 075°38'  

Dump ship's entire track history